ADDS METAR Data INFO
IDs: Format: Raw Decoded Include TAF

Data at: 2009 UTC 19 Oct 2017

KLNK 191954Z 17009KT 10SM CLR 26/11 A3000 RMK AO2 SLP152 T02610111
KLNK 191854Z 13008KT 10SM CLR 25/12 A3002 RMK AO2 SLP162 T02500117
KLNK 191754Z 16004KT 10SM CLR 23/12 A3005 RMK AO2 SLP171 T02330122 10233 20056 58014
KLNK 191654Z 32003KT 10SM CLR 20/11 A3007 RMK AO2 SLP180 T02000111
KLNK 191554Z 00000KT 10SM CLR 17/10 A3008 RMK AO2 SLP183 T01670100
KLNK 191454Z 00000KT 9SM CLR 12/08 A3009 RMK AO2 SLP188 T01220078 53006
KLNK 191354Z 00000KT 10SM CLR 08/06 A3009 RMK AO2 SLP189 T00830061
KLNK 191254Z 00000KT 10SM CLR 07/04 A3007 RMK AO2 SLP185 T00670044
KLNK 191154Z 01003KT 10SM CLR 06/04 A3007 RMK AO2 SLP183 T00610044 10089 20050 53009
KLNK 191054Z 35004KT 10SM CLR 07/04 A3007 RMK AO2 SLP177 T00670044
KLNK 190954Z AUTO 35006KT 10SM CLR 08/05 A3004 RMK AO2 SLP170 T00780050
KLNK 190854Z AUTO 36003KT 10SM CLR 07/05 A3004 RMK AO2 SLP170 T00720050 58002
KLNK 190754Z AUTO 34004KT 10SM CLR 08/06 A3006 RMK AO2 SLP173 T00830056
KLNK 190654Z AUTO 35003KT 10SM CLR 08/06 A3006 RMK AO2 SLP174 T00780056
KLNK 190554Z AUTO 35005KT 10SM CLR 08/06 A3005 RMK AO2 SLP174 T00780056 10167 20078 402670078 50001
KLNK 190454Z AUTO 35004KT 10SM CLR 08/06 A3006 RMK AO2 SLP177 T00830061
KLNK 190354Z AUTO 33003KT 10SM CLR 12/07 A3006 RMK AO2 SLP177 T01170067
KLNK 190254Z 00000KT 10SM CLR 13/06 A3005 RMK AO2 SLP174 T01330061 51019
KLNK 190154Z 34005KT 10SM CLR 14/06 A3004 RMK AO2 SLP171 T01390061
KLNK 190054Z 35006KT 10SM CLR 15/07 A3002 RMK AO2 SLP164 T01500072
KLNK 182354Z 02006KT 10SM CLR 17/08 A2999 RMK AO2 SLP155 T01670083 10267 20167 53022
KLNK 182254Z 02003KT 10SM CLR 25/10 A2996 RMK AO2 SLP140 T02500100
KLNK 182154Z 20006KT 10SM CLR 26/10 A2993 RMK AO2 SLP130 T02560100
KLNK 182054Z 20005KT 10SM CLR 26/10 A2993 RMK AO2 SLP127 T02560100 58001
KLNK 181954Z 25009KT 10SM CLR 26/09 A2993 RMK AO2 SLP129 T02560089
KLNK 181854Z 23006KT 10SM CLR 24/09 A2993 RMK AO2 SLP128 T02390089
KLNK 181754Z 18011KT 10SM CLR 22/09 A2993 RMK AO2 SLP130 T02220094 10222 20094 58005
KLNK 181654Z 21010KT 10SM CLR 20/09 A2993 RMK AO2 SLP130 T02000089
KLNK 181554Z 21013KT 10SM CLR 17/08 A2995 RMK AO2 SLP138 T01720083
KLNK 181454Z 20011KT 10SM CLR 14/08 A2994 RMK AO2 SLP137 T01440078 58003
KLNK 181354Z 18007KT 10SM CLR 13/08 A2994 RMK AO2 SLP137 T01280083
KLNK 181254Z 16004KT 10SM CLR 11/07 A2995 RMK AO2 SLP140 T01060067
KLNK 181154Z 17004KT 10SM CLR 10/07 A2995 RMK AO2 SLP140 T01000067 10128 20094 58001
KLNK 181054Z AUTO 17006KT 10SM CLR 09/07 A2996 RMK AO2 SLP141 T00940067
KLNK 180954Z AUTO 20003KT 10SM CLR 11/07 A2995 RMK AO2 SLP136 T01110072
KLNK 180854Z AUTO 19009KT 10SM CLR 12/08 A2995 RMK AO2 SLP137 T01170078 56009